Time;durP1;ratioP1;P1;durP2;ratioP2;P2;SDS_P1;SDS_P2;PMS_P1;PMS_P2;Temp;Humidity;BMP_temperature;BMP_pressure;BME280_temperature;BME280_humidity;BME280_pressure;Samples;Min_cycle;Max_cycle;Signal;HPM_P1;HPM_P2
2022/12/02 00:00:20;;;;;;;0.50;0.50;;;;;;;8.07;100.00;99869.88;5138843;27;20190;-63
2022/12/02 00:02:48;;;;;;;0.40;0.40;;;;;;;8.05;100.00;99870.72;5145641;27;20205;-63
2022/12/02 00:05:28;;;;;;;0.50;0.50;;;;;;;8.05;100.00;99871.56;5129735;27;20250;-63
2022/12/02 00:07:58;;;;;;;0.60;0.60;;;;;;;8.05;100.00;99871.56;5130229;27;20219;-63
2022/12/02 00:10:28;;;;;;;0.40;0.40;;;;;;;8.08;100.00;99868.97;5128687;27;20198;-63
2022/12/02 00:12:55;;;;;;;0.47;0.47;;;;;;;8.08;100.00;99870.72;5131961;27;20190;-62
2022/12/02 00:15:40;;;;;;;0.43;0.43;;;;;;;8.07;100.00;99869.88;5134536;27;20228;-64
2022/12/02 00:18:08;;;;;;;0.60;0.60;;;;;;;8.02;100.00;99869.06;5146028;27;20280;-63
2022/12/02 00:20:35;;;;;;;0.50;0.50;;;;;;;8.04;100.00;99875.00;5145090;27;20206;-63
2022/12/02 00:23:02;;;;;;;0.50;0.50;;;;;;;8.07;100.00;99869.00;5130893;27;20193;-63
2022/12/02 00:25:28;;;;;;;0.40;0.40;;;;;;;8.07;100.00;99874.97;5137726;27;20196;-63
2022/12/02 00:27:55;;;;;;;0.47;0.47;;;;;;;8.09;100.00;99877.47;5130942;27;20198;-62
2022/12/02 00:30:22;;;;;;;0.47;0.47;;;;;;;8.07;100.00;99872.41;5141075;27;20201;-63
2022/12/02 00:32:50;;;;;;;0.50;0.50;;;;;;;8.07;100.00;99867.31;5151809;27;20201;-63
2022/12/02 00:35:17;;;;;;;0.50;0.50;;;;;;;8.09;100.00;99868.13;5144702;27;20213;-63
2022/12/02 00:37:44;;;;;;;0.43;0.43;;;;;;;8.10;100.00;99874.06;5130628;27;20198;-63
2022/12/02 00:40:12;;;;;;;0.40;0.40;;;;;;;8.10;100.00;99872.38;5130687;27;20577;-63
2022/12/02 00:42:39;;;;;;;0.70;0.70;;;;;;;8.11;100.00;99871.50;5130543;27;20577;-63
2022/12/02 00:47:53;;;;;;;0.50;0.50;;;;;;;8.12;100.00;99873.19;5130458;27;20247;-63
2022/12/02 00:50:20;;;;;;;0.90;0.90;;;;;;;8.12;100.00;99875.75;5133698;27;20297;-64
2022/12/02 00:52:46;;;;;;;0.60;0.60;;;;;;;8.13;100.00;99874.88;5142059;27;20205;-63
2022/12/02 00:55:13;;;;;;;0.60;0.60;;;;;;;8.13;100.00;99874.88;5134106;27;20206;-63
2022/12/02 00:57:40;;;;;;;0.60;0.60;;;;;;;8.13;100.00;99869.78;5133827;27;20700;-63
2022/12/02 01:00:09;;;;;;;0.60;0.60;;;;;;;8.10;100.00;99863.88;5151603;27;20193;-63
2022/12/02 01:02:36;;;;;;;0.50;0.50;;;;;;;8.15;100.00;99868.03;5139432;27;20558;-63
2022/12/02 01:05:05;;;;;;;0.50;0.50;;;;;;;8.15;100.00;99873.16;5133865;27;20271;-63
2022/12/02 01:07:32;;;;;;;0.43;0.43;;;;;;;8.13;100.00;99858.72;5148945;27;20586;-63
2022/12/02 01:09:59;;;;;;;0.40;0.40;;;;;;;8.16;100.00;99864.63;5142896;27;20597;-62
2022/12/02 01:12:26;;;;;;;0.50;0.50;;;;;;;8.17;100.00;99860.38;5135894;27;20194;-63
2022/12/02 01:14:52;;;;;;;0.60;0.60;;;;;;;8.16;100.00;99864.63;5135115;27;20218;-63
2022/12/02 01:17:19;;;;;;;0.50;0.50;;;;;;;8.17;100.00;99860.38;5141069;27;20581;-63
2022/12/02 01:19:46;;;;;;;0.47;0.47;;;;;;;8.17;100.00;99870.59;5133677;27;20220;-62
2022/12/02 01:22:14;;;;;;;0.80;0.80;;;;;;;8.15;100.00;99865.47;5130427;27;20195;-63
2022/12/02 01:24:41;;;;;;;0.60;0.60;;;;;;;8.15;100.00;99862.94;5134099;27;20197;-63
2022/12/02 01:27:08;;;;;;;0.60;0.60;;;;;;;8.07;100.00;99839.22;5135175;27;20194;-63
2022/12/02 01:29:34;;;;;;;0.50;0.50;;;;;;;8.16;100.00;99859.53;5147286;27;20190;-63
2022/12/02 01:32:01;;;;;;;0.50;0.50;;;;;;;8.14;100.00;99845.91;5136995;27;20816;-62
2022/12/02 01:34:28;;;;;;;0.50;0.50;;;;;;;8.14;100.00;99850.19;5133420;27;20210;-62
2022/12/02 01:36:55;;;;;;;0.60;0.60;;;;;;;8.16;100.00;99854.41;5133693;27;20210;-63
2022/12/02 01:39:23;;;;;;;0.50;0.50;;;;;;;8.18;100.00;99854.38;5144196;27;20285;-63
2022/12/02 01:41:50;;;;;;;0.40;0.40;;;;;;;8.18;100.00;99857.78;5154204;27;20241;-63
2022/12/02 01:44:17;;;;;;;0.67;0.67;;;;;;;8.18;100.00;99852.69;5149906;27;20777;-63
2022/12/02 01:46:43;;;;;;;0.60;0.60;;;;;;;8.08;100.00;99834.97;5142021;27;20201;-63
2022/12/02 01:49:10;;;;;;;0.50;0.50;;;;;;;8.16;100.00;99844.19;5133499;27;20206;-63
2022/12/02 01:51:37;;;;;;;0.50;0.50;;;;;;;8.16;100.00;99849.31;5133287;27;20194;-63
2022/12/02 01:54:04;;;;;;;0.60;0.60;;;;;;;8.16;100.00;99846.75;5134376;27;20247;-63
2022/12/02 01:56:33;;;;;;;0.97;0.97;;;;;;;8.16;100.00;99845.91;5150659;27;20695;-63
2022/12/02 01:59:01;;;;;;;0.50;0.50;;;;;;;8.16;100.00;99846.75;5137826;27;20197;-62
2022/12/02 02:01:31;;;;;;;0.53;0.53;;;;;;;8.15;100.00;99841.66;5135381;27;20200;-63
2022/12/02 02:04:00;;;;;;;0.53;0.53;;;;;;;8.13;100.00;99838.28;5153553;27;20305;-63
2022/12/02 02:06:30;;;;;;;0.67;0.67;;;;;;;7.99;100.00;99825.69;5138333;27;20263;-63
2022/12/02 02:08:57;;;;;;;0.93;0.93;;;;;;;8.08;100.00;99835.78;5132861;27;20619;-62
2022/12/02 02:11:25;;;;;;;0.77;0.77;;;;;;;8.07;100.00;99839.22;5129924;27;20190;-63
2022/12/02 02:13:55;;;;;;;0.53;0.53;;;;;;;8.06;100.00;99832.41;5131860;27;20198;-63
2022/12/02 02:16:22;;;;;;;0.50;0.50;;;;;;;8.05;100.00;99835.81;5135066;27;20200;-63
2022/12/02 02:18:49;;;;;;;0.80;0.80;;;;;;;8.05;100.00;99834.97;5132226;27;20653;-63
2022/12/02 02:21:21;;;;;;;0.50;0.50;;;;;;;7.98;100.00;99829.09;5132887;27;20202;-63
2022/12/02 02:23:49;;;;;;;0.50;0.50;;;;;;;8.06;100.00;99837.53;5138132;27;20194;-63
2022/12/02 02:26:16;;;;;;;0.47;0.47;;;;;;;8.08;100.00;99835.78;5131385;27;20258;-63
2022/12/02 02:28:43;;;;;;;0.40;0.40;;;;;;;8.08;100.00;99835.78;5141288;27;20261;-63
2022/12/02 02:31:10;;;;;;;0.50;0.50;;;;;;;8.00;100.00;99816.34;5153411;27;20201;-63
2022/12/02 02:33:38;;;;;;;0.40;0.40;;;;;;;8.07;100.00;99841.78;5142776;27;20193;-63
2022/12/02 02:36:05;;;;;;;0.50;0.50;;;;;;;8.10;100.00;99844.28;5145934;27;20225;-63
2022/12/02 02:38:32;;;;;;;0.60;0.60;;;;;;;8.12;100.00;99846.81;5153228;27;20242;-62
2022/12/02 02:41:01;;;;;;;0.50;0.50;;;;;;;8.11;100.00;99845.94;5132430;27;20198;-63
2022/12/02 02:43:29;;;;;;;0.57;0.57;;;;;;;8.09;100.00;99847.69;5140311;27;20592;-63
2022/12/02 02:45:57;;;;;;;0.60;0.60;;;;;;;7.90;100.00;99820.72;5149360;27;20205;-63
2022/12/02 02:48:26;;;;;;;0.50;0.50;;;;;;;8.06;100.00;99842.63;5132327;27;20190;-63
2022/12/02 02:50:53;;;;;;;0.67;0.67;;;;;;;8.08;100.00;99845.19;5131980;27;20210;-63
2022/12/02 02:53:23;;;;;;;0.70;0.70;;;;;;;8.08;100.00;99848.53;5146789;27;20197;-63
2022/12/02 02:55:49;;;;;;;0.80;0.80;;;;;;;8.05;100.00;99851.16;5132069;27;20218;-63
2022/12/02 02:58:20;;;;;;;0.50;0.50;;;;;;;8.06;100.00;99857.09;5137756;27;20216;-63
2022/12/02 03:00:51;;;;;;;0.57;0.57;;;;;;;8.04;100.00;99849.47;5152809;27;20669;-62
2022/12/02 03:03:23;;;;;;;0.77;0.77;;;;;;;8.03;100.00;99842.66;5140192;27;20668;-63
2022/12/02 03:05:52;;;;;;;0.40;0.40;;;;;;;8.02;100.00;99846.06;5139965;27;20226;-63
2022/12/02 03:08:20;;;;;;;0.60;0.60;;;;;;;8.02;100.00;99848.63;5134835;27;20251;-62
2022/12/02 03:10:46;;;;;;;0.50;0.50;;;;;;;7.99;100.00;99846.13;5147587;27;20681;-62
2022/12/02 03:13:13;;;;;;;0.40;0.40;;;;;;;8.00;100.00;99852.94;5131484;27;20198;-63
2022/12/02 03:15:42;;;;;;;0.50;0.50;;;;;;;8.00;100.00;99852.94;5131742;27;20209;-63
2022/12/02 03:18:09;;;;;;;0.50;0.50;;;;;;;7.94;100.00;99858.09;5131002;27;20198;-63
2022/12/02 03:20:36;;;;;;;0.50;0.50;;;;;;;7.88;100.00;99850.53;5150245;27;20616;-62
2022/12/02 03:23:03;;;;;;;0.90;0.90;;;;;;;7.86;100.00;99855.63;5134305;27;20266;-63
2022/12/02 03:25:31;;;;;;;0.60;0.60;;;;;;;7.83;100.00;99859.94;5130201;27;20197;-63
2022/12/02 03:27:58;;;;;;;0.40;0.40;;;;;;;7.79;100.00;99853.16;5141005;27;20197;-62
2022/12/02 03:30:25;;;;;;;0.40;0.40;;;;;;;7.76;100.00;99858.31;5141421;27;20198;-63
2022/12/02 03:32:54;;;;;;;0.40;0.40;;;;;;;7.69;100.00;99849.06;5147909;27;20241;-62
2022/12/02 03:35:21;;;;;;;0.67;0.67;;;;;;;7.65;100.00;99844.84;5148393;27;20248;-63
2022/12/02 03:37:48;;;;;;;0.70;0.70;;;;;;;7.60;100.00;99847.44;5131568;27;20198;-63
2022/12/02 03:40:15;;;;;;;0.60;0.60;;;;;;;7.54;100.00;99834.75;5131308;27;20198;-63
2022/12/02 03:42:42;;;;;;;0.50;0.50;;;;;;;7.61;100.00;99858.50;5145041;27;20197;-63
2022/12/02 03:45:11;;;;;;;0.60;0.60;;;;;;;7.57;100.00;99856.81;5142580;27;20198;-63
2022/12/02 03:47:39;;;;;;;0.50;0.50;;;;;;;7.55;100.00;99856.00;5140988;27;20636;-63
2022/12/02 03:50:09;;;;;;;0.40;0.40;;;;;;;7.48;100.00;99854.38;5133262;27;20194;-62
2022/12/02 03:52:36;;;;;;;0.93;0.93;;;;;;;7.46;100.00;99864.63;5136232;27;20202;-63
2022/12/02 03:55:04;;;;;;;0.47;0.47;;;;;;;7.45;100.00;99875.66;5131086;27;20240;-63
2022/12/02 03:57:33;;;;;;;0.63;0.63;;;;;;;7.47;100.00;99870.53;5141629;27;20241;-63
2022/12/02 04:00:00;;;;;;;0.50;0.50;;;;;;;7.45;100.00;99870.56;5131106;27;20202;-63
2022/12/02 04:02:27;;;;;;;0.50;0.50;;;;;;;7.48;100.00;99872.22;5148509;27;20242;-63
2022/12/02 04:04:54;;;;;;;0.40;0.40;;;;;;;7.51;100.00;99867.94;5139909;27;20214;-63
2022/12/02 04:07:22;;;;;;;0.40;0.40;;;;;;;7.50;100.00;99870.50;5130603;27;20204;-63
2022/12/02 04:09:49;;;;;;;0.40;0.40;;;;;;;7.52;100.00;99869.66;5135144;27;20665;-63
2022/12/02 04:12:16;;;;;;;0.50;0.50;;;;;;;7.52;100.00;99876.44;5145100;27;20198;-63
2022/12/02 04:14:42;;;;;;;0.47;0.47;;;;;;;7.54;100.00;99877.28;5130960;27;20673;-63
2022/12/02 04:17:09;;;;;;;0.50;0.50;;;;;;;7.55;100.00;99874.72;5132042;27;20198;-63
2022/12/02 04:19:36;;;;;;;0.40;0.40;;;;;;;7.59;100.00;99873.84;5130078;27;20198;-63
2022/12/02 04:22:03;;;;;;;0.50;0.50;;;;;;;7.64;100.00;99878.88;5131348;27;20665;-62
2022/12/02 04:24:31;;;;;;;0.40;0.40;;;;;;;7.66;100.00;99882.22;5131426;27;20213;-63
2022/12/02 04:26:58;;;;;;;0.50;0.50;;;;;;;7.64;100.00;99883.97;5134481;27;20206;-63
2022/12/02 04:29:25;;;;;;;0.50;0.50;;;;;;;7.66;100.00;99884.78;5142425;27;20205;-63
2022/12/02 04:31:52;;;;;;;0.53;0.53;;;;;;;7.69;100.00;99892.44;5150830;27;20204;-63
2022/12/02 04:34:18;;;;;;;0.53;0.53;;;;;;;7.72;100.00;99893.22;5135263;27;20205;-63
2022/12/02 04:36:45;;;;;;;0.60;0.60;;;;;;;7.72;100.00;99889.84;5152979;27;20243;-62
2022/12/02 04:39:12;;;;;;;0.50;0.50;;;;;;;7.75;100.00;99892.38;5155884;27;20193;-62
2022/12/02 04:41:40;;;;;;;0.57;0.57;;;;;;;7.76;100.00;99891.47;5155590;27;20205;-63
2022/12/02 04:44:07;;;;;;;0.60;0.60;;;;;;;7.83;100.00;99900.78;5148585;27;20246;-63
2022/12/02 04:46:33;;;;;;;0.83;0.83;;;;;;;7.78;100.00;99887.22;5146265;27;20190;-63
2022/12/02 04:49:00;;;;;;;0.80;0.80;;;;;;;7.85;100.00;99906.72;5135090;27;20573;-63
2022/12/02 04:51:27;;;;;;;1.00;0.97;;;;;;;7.88;100.00;99904.13;5141055;27;20653;-63
2022/12/02 04:53:54;;;;;;;0.60;0.60;;;;;;;7.91;100.00;99910.06;5150820;27;20926;-62
2022/12/02 04:56:20;;;;;;;0.50;0.50;;;;;;;7.92;100.00;99910.88;5152109;27;20210;-63
2022/12/02 04:58:49;;;;;;;0.40;0.40;;;;;;;7.92;100.00;99914.28;5134662;27;20198;-63
2022/12/02 05:01:16;;;;;;;0.50;0.50;;;;;;;7.95;100.00;99925.34;5134618;27;20201;-62
2022/12/02 05:03:42;;;;;;;0.50;0.50;;;;;;;7.95;100.00;99923.59;5153293;27;20232;-63
2022/12/02 05:06:09;;;;;;;1.00;1.00;;;;;;;7.98;100.00;99926.13;5155021;27;20197;-63
2022/12/02 05:08:36;;;;;;;1.50;1.50;;;;;;;8.01;100.00;99926.09;5139958;27;20194;-68
2022/12/02 05:11:03;;;;;;;0.50;0.50;;;;;;;8.01;100.00;99930.38;5144645;27;20575;-68
2022/12/02 05:13:29;;;;;;;0.50;0.50;;;;;;;8.02;100.00;99930.34;5132363;27;20692;-68
2022/12/02 05:15:57;;;;;;;0.60;0.60;;;;;;;8.04;100.00;99936.28;5131637;27;20229;-68
2022/12/02 05:18:24;;;;;;;0.40;0.40;;;;;;;8.04;100.00;99931.19;5133874;27;20637;-68
2022/12/02 05:20:51;;;;;;;0.80;0.80;;;;;;;8.04;100.00;99930.34;5134494;27;20669;-68
2022/12/02 05:23:18;;;;;;;0.60;0.60;;;;;;;8.00;100.00;99929.50;5133866;27;20194;-68
2022/12/02 05:25:45;;;;;;;0.50;0.50;;;;;;;8.00;100.00;99929.50;5133960;27;20190;-68
2022/12/02 05:28:11;;;;;;;0.50;0.50;;;;;;;8.00;100.00;99934.63;5133714;27;20194;-68
2022/12/02 05:30:38;;;;;;;0.50;0.50;;;;;;;7.99;100.00;99932.91;5131382;27;20197;-68
2022/12/02 05:33:07;;;;;;;0.80;0.80;;;;;;;8.02;100.00;99938.00;5132859;27;20688;-68
2022/12/02 05:35:34;;;;;;;0.50;0.50;;;;;;;8.02;100.00;99930.34;5127374;27;20703;-68
2022/12/02 05:38:01;;;;;;;0.50;0.50;;;;;;;8.03;100.00;99939.69;5130374;27;20793;-68
2022/12/02 05:40:27;;;;;;;0.50;0.50;;;;;;;7.94;100.00;99927.03;5131664;27;20194;-68
2022/12/02 05:42:54;;;;;;;0.40;0.40;;;;;;;8.03;100.00;99938.84;5133631;27;20212;-68
2022/12/02 05:45:23;;;;;;;0.47;0.47;;;;;;;8.03;100.00;99944.81;5133834;27;20681;-67
2022/12/02 05:47:52;;;;;;;0.53;0.53;;;;;;;8.03;100.00;99934.59;5131195;27;20596;-68
2022/12/02 05:50:21;;;;;;;0.60;0.60;;;;;;;8.03;100.00;99939.69;5132895;27;20198;-67
2022/12/02 05:52:49;;;;;;;0.60;0.60;;;;;;;8.02;100.00;99942.25;5139735;27;20205;-68
2022/12/02 05:55:18;;;;;;;0.67;0.67;;;;;;;7.98;100.00;99931.22;5131952;27;20213;-68
2022/12/02 05:57:47;;;;;;;0.47;0.47;;;;;;;7.94;100.00;99919.38;5133290;27;20201;-68
2022/12/02 06:00:19;;;;;;;0.57;0.57;;;;;;;8.09;100.00;99944.72;5152320;27;20189;-68
2022/12/02 06:02:48;;;;;;;0.80;0.80;;;;;;;8.11;100.00;99945.53;5153874;27;20623;-68
2022/12/02 06:05:27;;;;;;;0.60;0.60;;;;;;;8.13;100.00;99954.06;5134995;27;20222;-68
2022/12/02 06:07:57;;;;;;;0.50;0.50;;;;;;;8.13;100.00;99946.38;5132631;27;20566;-68
2022/12/02 06:10:27;;;;;;;0.50;0.50;;;;;;;8.19;100.00;99959.09;5134787;27;20194;-68
2022/12/02 06:12:57;;;;;;;0.50;0.50;;;;;;;8.17;100.00;99952.31;5132532;27;20206;-68
2022/12/02 06:15:24;;;;;;;0.40;0.40;;;;;;;8.13;100.00;99953.19;5133153;27;20266;-68
2022/12/02 06:17:52;;;;;;;0.70;0.70;;;;;;;8.13;100.00;99961.72;5138707;27;20312;-68
2022/12/02 06:20:28;;;;;;;0.70;0.70;;;;;;;8.05;100.00;99943.06;5134276;27;20708;-68
2022/12/02 06:22:55;;;;;;;0.93;0.93;;;;;;;8.10;100.00;99954.09;5131237;27;20198;-68
2022/12/02 06:25:25;;;;;;;0.50;0.50;;;;;;;8.05;100.00;99947.31;5133268;27;20266;-68
2022/12/02 06:27:55;;;;;;;0.50;0.50;;;;;;;8.11;100.00;99953.19;5137290;27;20547;-68
2022/12/02 06:30:22;;;;;;;0.57;0.57;;;;;;;8.13;100.00;99964.25;5132485;27;20224;-68
2022/12/02 06:32:55;;;;;;;0.50;0.50;;;;;;;8.14;100.00;99958.28;5128493;27;20742;-68
2022/12/02 06:35:24;;;;;;;0.53;0.53;;;;;;;8.11;100.00;99952.38;5132189;27;20226;-68
2022/12/02 06:37:56;;;;;;;0.50;0.50;;;;;;;8.18;100.00;99967.59;5133899;27;20207;-67
2022/12/02 06:40:26;;;;;;;0.60;0.60;;;;;;;8.20;100.00;99968.44;5153662;27;20185;-68
2022/12/02 06:42:53;;;;;;;0.40;0.40;;;;;;;8.25;100.00;99973.47;5130242;27;20669;-68
2022/12/02 06:45:26;;;;;;;0.60;0.60;;;;;;;8.26;100.00;99970.91;5133971;27;20197;-68
2022/12/02 06:48:04;;;;;;;0.67;0.67;;;;;;;8.29;100.00;99973.47;5127459;27;20198;-67
2022/12/02 06:50:37;;;;;;;0.60;0.60;;;;;;;8.34;100.00;99976.81;5129509;27;20688;-66
2022/12/02 06:53:25;;;;;;;0.50;0.50;;;;;;;8.36;100.00;99985.31;5131830;27;20258;-65
2022/12/02 06:55:57;;;;;;;0.50;0.50;;;;;;;8.39;100.00;99980.16;5130223;27;20833;-65
2022/12/02 06:58:32;;;;;;;0.50;0.50;;;;;;;8.41;100.00;99982.69;5133121;27;20293;-65
2022/12/02 07:01:15;;;;;;;0.50;0.50;;;;;;;8.39;100.00;99985.28;5131080;27;20665;-66
2022/12/02 07:03:46;;;;;;;0.60;0.60;;;;;;;8.31;100.00;99979.41;5130731;27;20650;-68
2022/12/02 07:06:16;;;;;;;0.40;0.40;;;;;;;8.41;100.00;99988.66;5126698;27;20198;-67
2022/12/02 07:08:45;;;;;;;0.50;0.50;;;;;;;8.40;100.00;99994.59;5125118;27;20197;-67
2022/12/02 07:11:20;;;;;;;0.50;0.50;;;;;;;8.43;100.00;99997.13;5134027;27;20222;-68
2022/12/02 07:13:48;;;;;;;0.40;0.40;;;;;;;8.39;100.00;99992.94;5130718;27;20194;-69
2022/12/02 07:16:33;;;;;;;0.40;0.40;;;;;;;8.42;100.00;99992.06;5126778;27;20217;-69
2022/12/02 07:19:00;;;;;;;0.50;0.50;;;;;;;8.42;100.00;99997.16;5122633;27;20276;-67
2022/12/02 07:21:27;;;;;;;0.40;0.40;;;;;;;8.48;100.00;100004.75;5132404;27;20699;-67
2022/12/02 07:23:56;;;;;;;0.77;0.77;;;;;;;8.51;100.00;99993.63;5133215;27;20562;-67
2022/12/02 07:26:22;;;;;;;0.50;0.50;;;;;;;8.52;100.00;99995.34;5129654;27;20289;-67
2022/12/02 07:28:52;;;;;;;0.50;0.50;;;;;;;8.53;100.00;99991.94;5127901;27;20202;-67
2022/12/02 07:31:21;;;;;;;0.40;0.40;;;;;;;8.55;100.00;100001.25;5127492;27;20577;-67
2022/12/02 07:33:49;;;;;;;0.50;0.50;;;;;;;8.53;100.00;99984.25;5124410;27;20341;-68
2022/12/02 07:36:15;;;;;;;0.70;0.70;;;;;;;8.63;100.00;99998.59;5127317;27;20673;-68
2022/12/02 07:38:42;;;;;;;0.80;0.80;;;;;;;8.59;100.00;99989.28;5128604;27;20204;-68
2022/12/02 07:41:12;;;;;;;0.50;0.50;;;;;;;8.59;100.00;99991.84;5128066;27;20200;-68
2022/12/02 07:43:39;;;;;;;0.60;0.60;;;;;;;8.66;100.00;99996.84;5128798;27;20352;-68
2022/12/02 07:46:06;;;;;;;0.50;0.50;;;;;;;8.69;100.00;99999.34;5128428;27;20201;-68
2022/12/02 07:48:33;;;;;;;0.50;0.50;;;;;;;8.72;100.00;99999.34;5129603;27;20190;-69
2022/12/02 07:51:00;;;;;;;0.60;0.60;;;;;;;8.80;100.00;100006.88;5129621;27;20201;-68
2022/12/02 07:53:27;;;;;;;0.40;0.40;;;;;;;8.82;100.00;100010.28;5131802;27;20221;-68
2022/12/02 07:55:54;;;;;;;0.50;0.50;;;;;;;8.86;100.00;100001.69;5129486;27;20214;-66
2022/12/02 07:58:22;;;;;;;0.60;0.60;;;;;;;8.93;100.00;100003.31;5131945;27;20575;-66
2022/12/02 08:00:49;;;;;;;0.50;0.50;;;;;;;8.98;100.00;100011.78;5134003;27;20543;-67
2022/12/02 08:03:16;;;;;;;0.50;0.50;;;;;;;9.05;100.00;100005.69;5134234;27;20201;-68
2022/12/02 08:05:43;;;;;;;0.40;0.40;;;;;;;9.11;100.00;100012.44;5135625;27;20225;-68
2022/12/02 08:08:09;;;;;;;0.73;0.73;;;;;;;9.16;100.00;100016.63;5155862;27;20576;-68
2022/12/02 08:10:36;;;;;;;0.50;0.50;;;;;;;9.16;100.00;100010.66;5156484;27;20914;-69
2022/12/02 08:13:03;;;;;;;0.47;0.47;;;;;;;9.20;100.00;100005.47;5156313;27;20193;-67
2022/12/02 08:15:31;;;;;;;0.40;0.40;;;;;;;9.25;100.00;100010.50;5156431;27;20701;-67
2022/12/02 08:17:58;;;;;;;0.50;0.50;;;;;;;9.31;100.00;100016.38;5135939;27;20210;-66
2022/12/02 08:20:26;;;;;;;0.70;0.70;;;;;;;9.38;100.00;100017.97;5133723;27;20647;-67
2022/12/02 08:22:53;;;;;;;0.40;0.40;;;;;;;9.38;100.00;100002.63;5134803;27;20206;-67
2022/12/02 08:25:19;;;;;;;0.50;0.50;;;;;;;9.47;100.00;100016.97;5134102;27;20722;-67
2022/12/02 08:27:46;;;;;;;0.60;0.60;;;;;;;9.52;100.00;100024.59;5135483;27;20198;-67
2022/12/02 08:30:16;;;;;;;0.33;0.33;;;;;;;9.52;100.00;100016.91;5135302;27;20205;-67
2022/12/02 08:32:44;;;;;;;0.57;0.57;;;;;;;9.41;100.00;99997.47;5132884;27;20289;-67
2022/12/02 08:35:11;;;;;;;0.63;0.63;;;;;;;9.66;100.00;100017.56;5132956;27;20207;-67
2022/12/02 08:37:38;;;;;;;0.53;0.53;;;;;;;9.78;100.00;100017.34;5133384;27;20309;-67
2022/12/02 08:40:06;;;;;;;0.50;0.50;;;;;;;9.70;100.00;100001.25;5129331;27;20202;-67
2022/12/02 08:42:33;;;;;;;0.40;0.40;;;;;;;9.87;100.00;100030.81;5134208;27;20198;-67
2022/12/02 08:45:00;;;;;;;0.50;0.50;;;;;;;9.84;100.00;100037.72;5125059;27;20202;-67
2022/12/02 08:47:27;;;;;;;0.50;0.50;;;;;;;9.82;100.00;100035.16;5126213;27;20198;-67
2022/12/02 08:49:55;;;;;;;0.50;0.50;;;;;;;9.88;100.00;100039.34;5133356;27;20201;-67
2022/12/02 08:52:22;;;;;;;0.60;0.60;;;;;;;9.86;100.00;100035.97;5134168;27;20201;-67
2022/12/02 08:54:48;;;;;;;0.50;0.50;;;;;;;9.84;100.00;100037.72;5135650;27;20247;-68
2022/12/02 08:57:15;;;;;;;0.50;0.50;;;;;;;9.87;100.00;100046.19;5131636;27;20613;-68
2022/12/02 08:59:42;;;;;;;0.80;0.80;;;;;;;9.97;100.00;100041.75;5134584;27;20688;-68
2022/12/02 09:02:09;;;;;;;0.60;0.60;;;;;;;10.02;100.00;100037.38;5134661;27;20202;-69
2022/12/02 09:04:36;;;;;;;0.40;0.40;;;;;;;10.05;100.00;100032.19;5140558;27;20700;-68
2022/12/02 09:07:04;;;;;;;0.50;0.50;;;;;;;10.10;100.00;100029.56;5154820;27;20652;-68
2022/12/02 09:09:31;;;;;;;0.40;0.40;;;;;;;10.08;100.00;100032.16;5154818;27;20197;-68
2022/12/02 09:11:57;;;;;;;0.40;0.40;;;;;;;10.09;100.00;100033.00;5155459;27;20545;-68
2022/12/02 09:14:24;;;;;;;0.40;0.40;;;;;;;10.13;100.00;100025.25;5147237;27;20673;-68
2022/12/02 09:16:51;;;;;;;0.90;0.90;;;;;;;10.15;100.00;100022.66;5134351;27;20210;-68
2022/12/02 09:19:18;;;;;;;0.60;0.60;;;;;;;10.16;100.00;100038.03;5133561;27;20205;-68
2022/12/02 09:21:44;;;;;;;0.50;0.50;;;;;;;10.30;100.00;100022.41;5134451;27;20681;-68
2022/12/02 09:24:13;;;;;;;0.50;0.50;;;;;;;10.42;100.00;100017.03;5134586;27;20202;-68
2022/12/02 09:26:39;;;;;;;0.60;0.60;;;;;;;10.53;100.00;100026.19;5133989;27;20194;-72
2022/12/02 09:29:06;;;;;;;0.60;0.60;;;;;;;10.66;100.00;100020.81;5140019;27;20618;-71
2022/12/02 09:31:33;;;;;;;0.93;0.93;;;;;;;10.67;100.00;100013.09;5132068;27;20619;-72
2022/12/02 09:34:00;;;;;;;0.60;0.60;;;;;;;10.86;100.00;100023.78;5143013;27;20200;-68
2022/12/02 09:36:27;;;;;;;0.60;0.60;;;;;;;11.00;100.00;100019.22;5134522;27;20267;-68
2022/12/02 09:38:53;;;;;;;0.40;0.40;;;;;;;11.01;100.00;100016.63;5134348;27;20198;-69
2022/12/02 09:41:22;;;;;;;0.50;0.50;;;;;;;11.08;100.00;100020.72;5134165;27;20198;-68
2022/12/02 09:43:49;;;;;;;0.40;0.40;;;;;;;11.03;100.00;100021.72;5133835;27;20251;-67
2022/12/02 09:46:16;;;;;;;0.40;0.40;;;;;;;11.00;100.00;100021.78;5133841;27;20195;-67
2022/12/02 09:48:43;;;;;;;0.43;0.43;;;;;;;11.08;100.00;100015.59;5133791;27;20201;-68
2022/12/02 09:51:11;;;;;;;0.50;0.50;;;;;;;11.11;100.00;100012.16;5133610;27;20577;-68
2022/12/02 09:53:40;;;;;;;1.80;1.03;;;;;;;11.19;100.00;100007.66;5148074;27;20205;-67
2022/12/02 09:56:13;;;;;;;0.63;0.63;;;;;;;11.21;100.00;100010.22;5154392;27;20647;-69
2022/12/02 09:58:42;;;;;;;0.70;0.70;;;;;;;11.15;100.00;100021.44;5144388;27;20229;-69
2022/12/02 10:01:10;;;;;;;0.40;0.40;;;;;;;11.14;100.00;100014.63;5133449;27;20618;-68
2022/12/02 10:03:37;;;;;;;0.40;0.40;;;;;;;11.20;100.00;100013.66;5154281;27;20652;-68
2022/12/02 10:06:07;;;;;;;0.50;0.50;;;;;;;11.15;100.00;100003.47;5136389;27;20194;-67
2022/12/02 10:08:34;;;;;;;0.47;0.47;;;;;;;11.15;100.00;100006.03;5134352;27;20684;-69
2022/12/02 10:11:01;;;;;;;0.50;0.50;;;;;;;11.13;100.00;100014.66;5137005;27;20190;-67
2022/12/02 10:13:32;;;;;;;0.50;0.50;;;;;;;11.25;100.00;100007.53;5134433;27;20562;-68
2022/12/02 10:16:02;;;;;;;0.40;0.40;;;;;;;11.35;100.00;100003.88;5132307;27;20201;-66
2022/12/02 10:18:31;;;;;;;0.50;0.50;;;;;;;11.35;100.00;100014.13;5132412;27;20944;-67
2022/12/02 10:20:58;;;;;;;0.50;0.50;;;;;;;11.44;100.00;100019.03;5133024;27;20201;-68
2022/12/02 10:23:27;;;;;;;0.50;0.50;;;;;;;11.53;100.00;100008.53;5132265;27;20246;-68
2022/12/02 10:25:57;;;;;;;0.50;0.50;;;;;;;11.59;100.00;100003.28;5133091;27;20197;-68
2022/12/02 10:28:29;;;;;;;0.30;0.30;;;;;;;11.61;98.94;100021.22;5153834;27;20196;-69
2022/12/02 10:31:00;;;;;;;0.70;0.70;;;;;;;11.63;97.84;100008.34;5132228;27;20198;-68
2022/12/02 10:33:29;;;;;;;0.50;0.50;;;;;;;11.65;99.37;100016.84;5141302;27;20202;-68
2022/12/02 10:35:56;;;;;;;0.47;0.47;;;;;;;11.62;100.00;100006.66;5153679;27;20246;-68
2022/12/02 10:38:35;;;;;;;0.50;0.50;;;;;;;11.76;100.00;100000.31;5149957;27;20214;-70
2022/12/02 10:41:15;;;;;;;0.50;0.50;;;;;;;11.72;100.00;99977.31;5141390;27;20201;-68
2022/12/02 10:43:44;;;;;;;0.43;0.43;;;;;;;11.93;100.00;99997.31;5131276;27;20198;-68
2022/12/02 10:46:12;;;;;;;1.03;1.03;;;;;;;12.06;100.00;99994.38;5131519;27;20198;-69
2022/12/02 10:48:41;;;;;;;0.50;0.50;;;;;;;12.09;100.00;99993.44;5139761;27;20225;-68
2022/12/02 10:51:13;;;;;;;0.50;0.50;;;;;;;12.00;100.00;100003.97;5131953;27;20503;-68
2022/12/02 10:53:40;;;;;;;0.60;0.60;;;;;;;12.02;100.00;99997.06;5131642;27;20220;-68
2022/12/02 10:56:14;;;;;;;0.60;0.60;;;;;;;12.07;100.00;99993.50;5132404;27;20198;-68
2022/12/02 10:58:41;;;;;;;0.40;0.40;;;;;;;12.12;100.00;99987.41;5131921;27;20201;-68
2022/12/02 11:01:11;;;;;;;0.40;0.40;;;;;;;12.17;100.00;99988.97;5131041;27;20254;-68
2022/12/02 11:03:38;;;;;;;0.50;0.50;;;;;;;12.02;100.00;99994.50;5131381;27;20198;-68
2022/12/02 11:06:14;;;;;;;0.67;0.67;;;;;;;11.98;100.00;99991.19;5134316;27;20202;-68
2022/12/02 11:08:42;;;;;;;0.50;0.50;;;;;;;11.93;100.00;99985.31;5131059;27;20216;-68
2022/12/02 11:11:13;;;;;;;0.53;0.53;;;;;;;11.89;100.00;99990.59;5128573;27;20198;-68
2022/12/02 11:13:53;;;;;;;0.40;0.40;;;;;;;11.93;100.00;99981.88;5135667;27;20666;-68
2022/12/02 11:16:43;;;;;;;0.57;0.57;;;;;;;11.87;100.00;99982.91;5131468;27;20194;-68
2022/12/02 11:19:39;;;;;;;0.50;0.50;;;;;;;11.81;100.00;99990.78;5129228;27;20197;-69
2022/12/02 11:22:45;;;;;;;0.40;0.40;;;;;;;11.79;100.00;99995.13;5131662;27;20205;-69
2022/12/02 11:25:47;;;;;;;0.50;0.50;;;;;;;11.63;100.00;99992.94;5132319;27;20258;-69
2022/12/02 11:28:30;;;;;;;0.40;0.40;;;;;;;11.58;100.00;99978.47;5131089;27;20217;-68
2022/12/02 11:31:17;;;;;;;0.50;0.50;;;;;;;11.72;100.00;99990.16;5131835;27;20205;-67
2022/12/02 11:34:05;;;;;;;0.80;0.80;;;;;;;11.68;100.00;99991.94;5151853;27;20193;-68
2022/12/02 11:36:35;;;;;;;0.60;0.60;;;;;;;11.68;100.00;99991.09;5147585;27;20193;-68
2022/12/02 11:39:06;;;;;;;0.40;0.40;;;;;;;11.71;100.00;99997.03;5135199;27;20711;-68